Terminal Aerodrome Forecast
Issued by NWS Louisville, KY

Home | Current Version | Previous Version | Text Only | Print | Product List | Glossary On
Versions: 1 2 3 4 5 6 7 8 9 10 11 12 13 14
000
FTUS43 KLMK 210527
TAFSDF
TAF
KSDF 210527Z 2106/2212 17007KT P6SM FEW250
     FM211400 20013G19KT P6SM FEW140 SCT250
     FM212300 25009KT P6SM SCT110 SCT200
     FM220200 30012KT P6SM SCT090 BKN200=

USA.gov is the U.S. government's official web portal to all federal, state and local government web resources and services.